This is the latest recevied weather packets stored in our database for station/object EA8AYY-10. If no packets are shown the sender has not sent any weather packets the latest 10 day(s).
| Time | Temp. | Humidity | Pressure | Rain* | Wind** | Luminosity | Snow |
|---|---|---|---|---|---|---|---|
| 1787701619 | 22.22° C | 63% | 1023.4 hPa | - | - | - | - |
| 1787700719 | 23.89° C | 59% | 1023.4 hPa | - | - | - | - |
| 1787699819 | 22.22° C | 63% | 1023.3 hPa | - | - | - | - |
| 1787698919 | 22.78° C | 62% | 1023.3 hPa | - | - | - | - |
| 1787698019 | 22.22° C | 62% | 1023.3 hPa | - | - | - | - |
| 1787697119 | 22.78° C | 61% | 1023.4 hPa | - | - | - | - |
| 1787696218 | 22.78° C | 62% | 1023.3 hPa | - | - | - | - |
| 1787695318 | 22.78° C | 62% | 1023.4 hPa | - | - | - | - |
| 1787694427 | 22.78° C | 62% | 1023.4 hPa | - | - | - | - |
| 1787693527 | 24.44° C | 57% | 1023.1 hPa | - | - | - | - |
| 1787692627 | 22.78° C | 61% | 1023.2 hPa | - | - | - | - |
| 1787691726 | 23.33° C | 61% | 1023 hPa | - | - | - | - |
| 1787690826 | 26.11° C | 56% | 1023 hPa | - | - | - | - |
| 1787689922 | 22.78° C | 61% | 1023 hPa | - | - | - | - |
| 1787689021 | 23.33° C | 59% | 1022.8 hPa | - | - | - | - |
| 1787688121 | 23.89° C | 57% | 1022.5 hPa | - | - | - | - |
| 1787687221 | 23.89° C | 58% | 1022.4 hPa | - | - | - | - |
| 1787686321 | 25.56° C | 53% | 1022.4 hPa | - | - | - | - |
| 1787685420 | 24.44° C | 56% | 1022.2 hPa | - | - | - | - |
| 1787684520 | 25.56° C | 53% | 1022.2 hPa | - | - | - | - |
| 1787683620 | 25.56° C | 52% | 1022.1 hPa | - | - | - | - |
| 1787682720 | 25.56° C | 52% | 1021.9 hPa | - | - | - | - |
| 1787681820 | 26.11° C | 53% | 1021.9 hPa | - | - | - | - |
| 1787680919 | 26.11° C | 52% | 1022 hPa | - | - | - | - |
| 1787680019 | 26.11° C | 51% | 1022.1 hPa | - | - | - | - |
* Rain since midnight (hover to see other rain measurements)
** Current wind speed in m/s (hover to see current wind gust speed)